Time;durP1;ratioP1;P1;durP2;ratioP2;P2;SDS_P1;SDS_P2;PMS_P1;PMS_P2;Temp;Humidity;BMP_temperature;BMP_pressure;BME280_temperature;BME280_humidity;BME280_pressure;Samples;Min_cycle;Max_cycle;Signal;HPM_P1;HPM_P2
2023/10/06 00:00:33;;;;;;;15.43;12.30;;;8.40;99.90;;;;;;4998833;28;20201;-78
2023/10/06 00:03:00;;;;;;;13.77;12.47;;;8.40;99.90;;;;;;5000035;28;20723;-78
2023/10/06 00:05:29;;;;;;;14.07;11.73;;;8.40;99.90;;;;;;4997989;28;20205;-78
2023/10/06 00:07:57;;;;;;;14.17;12.20;;;8.40;99.90;;;;;;5002398;28;20251;-79
2023/10/06 00:10:27;;;;;;;13.30;11.90;;;8.30;99.90;;;;;;5002304;28;20735;-79
2023/10/06 00:12:58;;;;;;;12.90;11.60;;;8.30;99.90;;;;;;5007840;28;20255;-79
2023/10/06 00:15:38;;;;;;;13.93;12.63;;;8.20;99.90;;;;;;5012485;28;20554;-78
2023/10/06 00:18:07;;;;;;;12.77;11.43;;;8.20;99.90;;;;;;4997368;28;20730;-78
2023/10/06 00:20:42;;;;;;;12.87;11.67;;;8.20;99.90;;;;;;5000042;28;20262;-78
2023/10/06 00:23:14;;;;;;;13.07;11.87;;;8.20;99.90;;;;;;5002067;28;20222;-78
2023/10/06 00:25:43;;;;;;;13.50;12.00;;;8.20;99.90;;;;;;5003613;28;20604;-79
2023/10/06 00:28:17;;;;;;;13.27;11.97;;;8.20;99.90;;;;;;5001948;28;20193;-78
2023/10/06 00:30:47;;;;;;;12.23;11.13;;;8.10;99.90;;;;;;4999897;28;20210;-79
2023/10/06 00:33:14;;;;;;;13.27;12.07;;;8.10;99.90;;;;;;5004076;28;20610;-78
2023/10/06 00:35:44;;;;;;;13.30;11.60;;;8.10;99.90;;;;;;5009611;28;20219;-79
2023/10/06 00:38:16;;;;;;;13.17;11.57;;;8.10;99.90;;;;;;5001476;28;20216;-78
2023/10/06 00:40:46;;;;;;;13.07;11.77;;;8.10;99.90;;;;;;5009469;28;20205;-79
2023/10/06 00:43:16;;;;;;;12.93;11.63;;;8.10;99.90;;;;;;4999482;28;20539;-79
2023/10/06 00:45:48;;;;;;;13.80;12.00;;;8.00;99.90;;;;;;5002642;28;20224;-78
2023/10/06 00:48:15;;;;;;;12.90;11.70;;;8.00;99.90;;;;;;5004125;28;20198;-78
2023/10/06 00:50:43;;;;;;;14.23;12.80;;;8.00;99.90;;;;;;5003176;28;20205;-79
2023/10/06 00:53:13;;;;;;;13.73;12.43;;;8.00;99.90;;;;;;5000359;28;20516;-79
2023/10/06 00:55:40;;;;;;;13.90;12.37;;;7.90;99.90;;;;;;5001017;28;20197;-79
2023/10/06 00:58:10;;;;;;;13.70;12.40;;;7.90;99.90;;;;;;5002069;28;20707;-79
2023/10/06 01:00:39;;;;;;;13.27;12.07;;;7.90;99.90;;;;;;4998075;28;20204;-78
2023/10/06 01:03:14;;;;;;;13.20;11.90;;;7.90;99.90;;;;;;5001981;28;20667;-79
2023/10/06 01:05:45;;;;;;;13.77;12.47;;;7.90;99.90;;;;;;5003590;28;20213;-79
2023/10/06 01:08:13;;;;;;;13.07;11.77;;;7.90;99.90;;;;;;4999675;28;20617;-78
2023/10/06 01:10:40;;;;;;;13.67;12.30;;;7.80;99.90;;;;;;5000315;28;20200;-78
2023/10/06 01:13:12;;;;;;;13.20;12.10;;;7.80;99.90;;;;;;5002891;28;20221;-78
2023/10/06 01:15:48;;;;;;;12.50;11.20;;;7.90;99.90;;;;;;5001541;28;20259;-78
2023/10/06 01:18:23;;;;;;;13.07;11.77;;;7.80;99.90;;;;;;4997207;28;20741;-78
2023/10/06 01:20:50;;;;;;;13.37;12.00;;;7.80;99.90;;;;;;4999105;28;20211;-78
2023/10/06 01:23:21;;;;;;;12.93;11.67;;;7.80;99.90;;;;;;4998849;28;20208;-78
2023/10/06 01:25:53;;;;;;;13.00;11.63;;;7.80;99.90;;;;;;4997039;28;20201;-78
2023/10/06 01:28:23;;;;;;;14.50;12.93;;;7.70;99.90;;;;;;4998362;28;20212;-78
2023/10/06 01:30:50;;;;;;;13.57;12.20;;;7.70;99.90;;;;;;5001474;28;20209;-79
2023/10/06 01:33:17;;;;;;;14.07;12.67;;;7.70;99.90;;;;;;5042499;22;20234;-76
2023/10/06 01:35:46;;;;;;;13.47;12.30;;;7.70;99.90;;;;;;5022601;28;20265;-76
2023/10/06 01:38:22;;;;;;;13.33;12.10;;;7.60;99.90;;;;;;5030578;28;20219;-76
2023/10/06 01:40:52;;;;;;;13.70;12.30;;;7.60;99.90;;;;;;5030873;28;20210;-76
2023/10/06 01:43:22;;;;;;;14.03;12.67;;;7.50;99.90;;;;;;5022211;28;20222;-76
2023/10/06 01:45:50;;;;;;;14.10;12.80;;;7.50;99.90;;;;;;5026909;28;20645;-76
2023/10/06 01:48:23;;;;;;;12.97;11.87;;;7.50;99.90;;;;;;5019560;28;20249;-76
2023/10/06 01:50:50;;;;;;;13.90;12.60;;;7.50;99.90;;;;;;5038184;28;20295;-76
2023/10/06 01:53:19;;;;;;;14.23;12.80;;;7.50;99.90;;;;;;5029425;28;20231;-76
2023/10/06 01:55:50;;;;;;;13.57;12.30;;;7.50;99.90;;;;;;5019640;28;20226;-76
2023/10/06 01:58:17;;;;;;;15.03;13.50;;;7.50;99.90;;;;;;5032085;28;20246;-77
2023/10/06 02:00:48;;;;;;;15.37;13.77;;;7.50;99.90;;;;;;5030406;28;20306;-75
2023/10/06 02:03:18;;;;;;;14.67;13.30;;;7.50;99.90;;;;;;5029522;28;20597;-76
2023/10/06 02:05:45;;;;;;;14.37;13.07;;;7.40;99.90;;;;;;5022743;28;20207;-76
2023/10/06 02:08:14;;;;;;;14.23;12.97;;;7.40;99.90;;;;;;5028059;28;20199;-76
2023/10/06 02:10:44;;;;;;;14.40;13.10;;;7.50;99.90;;;;;;5031257;28;20202;-76
2023/10/06 02:13:12;;;;;;;14.53;13.23;;;7.40;99.90;;;;;;5028449;28;20237;-76
2023/10/06 02:15:39;;;;;;;14.07;12.87;;;7.40;99.90;;;;;;5031290;28;20665;-76
2023/10/06 02:18:12;;;;;;;14.60;13.30;;;7.40;99.90;;;;;;5023829;28;20207;-76
2023/10/06 02:20:41;;;;;;;15.37;13.93;;;7.40;99.90;;;;;;5035044;28;20284;-77
2023/10/06 02:23:08;;;;;;;15.93;14.43;;;7.40;99.90;;;;;;5022718;28;20719;-76
2023/10/06 02:25:36;;;;;;;15.17;13.73;;;7.40;99.90;;;;;;5019596;28;20199;-76
2023/10/06 02:28:05;;;;;;;14.60;13.20;;;7.30;99.90;;;;;;5031056;28;20280;-76
2023/10/06 02:30:36;;;;;;;16.57;14.97;;;7.30;99.90;;;;;;5022939;28;20258;-76
2023/10/06 02:33:05;;;;;;;18.50;13.93;;;7.40;99.90;;;;;;5023839;28;20243;-76
2023/10/06 02:35:34;;;;;;;14.93;13.43;;;7.40;99.90;;;;;;5030052;28;20201;-76
2023/10/06 02:38:05;;;;;;;14.70;13.30;;;7.30;99.90;;;;;;5026565;28;20566;-76
2023/10/06 02:40:43;;;;;;;14.77;13.30;;;7.30;99.90;;;;;;5021111;28;20587;-76
2023/10/06 02:43:16;;;;;;;15.00;13.73;;;7.30;99.90;;;;;;5022399;28;20223;-76
2023/10/06 02:45:44;;;;;;;13.87;12.67;;;7.30;99.90;;;;;;5013604;28;20203;-76
2023/10/06 02:48:23;;;;;;;14.73;12.80;;;7.20;99.90;;;;;;5022903;28;20203;-77
2023/10/06 02:50:55;;;;;;;14.90;13.70;;;7.20;99.90;;;;;;5023773;28;20261;-77
2023/10/06 02:53:23;;;;;;;15.07;13.70;;;7.20;99.90;;;;;;5021051;28;20232;-77
2023/10/06 02:55:55;;;;;;;14.50;13.20;;;7.20;99.90;;;;;;5031221;28;20208;-79
2023/10/06 02:58:27;;;;;;;14.37;13.17;;;7.20;99.90;;;;;;5026252;28;20222;-78
2023/10/06 03:00:56;;;;;;;14.90;13.70;;;7.20;99.90;;;;;;5053419;28;20233;-77
2023/10/06 03:03:27;;;;;;;14.13;12.93;;;7.20;99.90;;;;;;5046784;28;20223;-77
2023/10/06 03:05:57;;;;;;;15.00;13.67;;;7.20;99.90;;;;;;5029302;28;20213;-77
2023/10/06 03:08:27;;;;;;;14.33;13.13;;;7.30;99.90;;;;;;5038346;28;20627;-78
2023/10/06 03:10:54;;;;;;;13.57;12.43;;;7.30;99.90;;;;;;5029264;28;20266;-77
2023/10/06 03:13:32;;;;;;;13.77;12.73;;;7.30;99.90;;;;;;5036477;28;20317;-77
2023/10/06 03:16:01;;;;;;;15.50;14.13;;;7.30;99.90;;;;;;5030148;28;20624;-77
2023/10/06 03:18:30;;;;;;;16.10;14.70;;;7.30;99.90;;;;;;5030560;28;20203;-77
2023/10/06 03:21:01;;;;;;;14.27;12.97;;;7.30;99.90;;;;;;5029435;28;20200;-77
2023/10/06 03:23:31;;;;;;;14.67;13.40;;;7.30;99.90;;;;;;5029593;28;20343;-76
2023/10/06 03:26:02;;;;;;;15.33;13.97;;;7.30;99.90;;;;;;5032098;28;20217;-75
2023/10/06 03:28:36;;;;;;;14.77;13.57;;;7.20;99.90;;;;;;5019440;28;20218;-76
2023/10/06 03:31:21;;;;;;;17.23;13.70;;;7.20;99.90;;;;;;5028636;28;20194;-78
2023/10/06 03:33:50;;;;;;;14.40;13.10;;;7.20;99.90;;;;;;5027063;28;20270;-77
2023/10/06 03:36:27;;;;;;;14.47;13.27;;;7.20;99.90;;;;;;5027332;28;20224;-77
2023/10/06 03:38:55;;;;;;;14.33;13.03;;;7.10;99.90;;;;;;5036722;28;20221;-77
2023/10/06 03:41:31;;;;;;;15.33;13.83;;;7.10;99.90;;;;;;5025636;28;20266;-79
2023/10/06 03:44:00;;;;;;;14.03;12.83;;;7.10;99.90;;;;;;5027953;28;20233;-77
2023/10/06 03:46:37;;;;;;;14.67;13.43;;;7.10;99.90;;;;;;5034440;28;20204;-77
2023/10/06 03:49:04;;;;;;;15.87;14.30;;;7.00;99.90;;;;;;5029260;28;20273;-77
2023/10/06 03:51:37;;;;;;;16.60;14.40;;;7.00;99.90;;;;;;5030163;28;20289;-77
2023/10/06 03:54:05;;;;;;;15.87;14.27;;;7.00;99.90;;;;;;5026109;28;20216;-75
2023/10/06 03:56:32;;;;;;;16.57;14.43;;;7.00;99.90;;;;;;5024916;28;20202;-75
2023/10/06 03:59:00;;;;;;;16.30;14.80;;;7.00;99.90;;;;;;5022992;28;20574;-74
2023/10/06 04:01:31;;;;;;;16.20;14.80;;;7.00;99.90;;;;;;5025826;28;20203;-74
2023/10/06 04:03:59;;;;;;;15.97;14.47;;;6.90;99.90;;;;;;5021520;28;20636;-74
2023/10/06 04:06:26;;;;;;;16.13;14.63;;;6.90;99.90;;;;;;5020054;28;20299;-74
2023/10/06 04:08:53;;;;;;;15.63;14.23;;;6.90;99.90;;;;;;5016691;28;20197;-74
2023/10/06 04:11:20;;;;;;;15.90;14.40;;;6.90;99.90;;;;;;5015838;28;20204;-74
2023/10/06 04:13:48;;;;;;;18.00;15.10;;;6.90;99.90;;;;;;5013621;28;20229;-74
2023/10/06 04:16:15;;;;;;;16.20;14.60;;;6.90;99.90;;;;;;5012144;28;20198;-74
2023/10/06 04:18:47;;;;;;;15.90;14.40;;;6.90;99.90;;;;;;5018748;28;20200;-74
2023/10/06 04:21:14;;;;;;;15.23;13.87;;;6.90;99.90;;;;;;5027423;28;20194;-74
2023/10/06 04:23:41;;;;;;;15.67;14.13;;;6.90;99.90;;;;;;5028953;28;20770;-74
2023/10/06 04:26:09;;;;;;;16.33;14.63;;;6.80;99.90;;;;;;5022429;28;20248;-74
2023/10/06 04:28:36;;;;;;;16.17;14.07;;;6.80;99.90;;;;;;5029533;28;20202;-74
2023/10/06 04:31:05;;;;;;;15.43;14.03;;;6.80;99.90;;;;;;5015839;28;20665;-74
2023/10/06 04:33:33;;;;;;;15.17;13.87;;;6.80;99.90;;;;;;5018629;28;20222;-74
2023/10/06 04:36:07;;;;;;;14.37;13.23;;;6.80;99.90;;;;;;5012036;28;20300;-74
2023/10/06 04:38:37;;;;;;;14.30;13.20;;;6.80;99.90;;;;;;5011754;28;20281;-74
2023/10/06 04:41:06;;;;;;;13.47;12.47;;;6.80;99.90;;;;;;5022385;28;20217;-74
2023/10/06 04:43:33;;;;;;;14.50;13.20;;;6.80;99.90;;;;;;5020692;28;20242;-74
2023/10/06 04:46:00;;;;;;;14.93;13.63;;;6.80;99.90;;;;;;5021653;28;20203;-74
2023/10/06 04:48:29;;;;;;;15.60;13.93;;;6.80;99.90;;;;;;5021353;28;20221;-74
2023/10/06 04:50:56;;;;;;;15.40;14.10;;;6.80;99.90;;;;;;5022911;28;20652;-74
2023/10/06 04:53:24;;;;;;;14.17;13.07;;;6.80;99.90;;;;;;5016634;28;20308;-74
2023/10/06 04:55:51;;;;;;;14.00;12.70;;;6.70;99.90;;;;;;5017157;28;20203;-74
2023/10/06 04:58:18;;;;;;;14.90;13.60;;;6.70;99.90;;;;;;5020076;28;20547;-74
2023/10/06 05:00:47;;;;;;;15.03;13.83;;;6.70;99.90;;;;;;5021895;28;20264;-75
2023/10/06 05:03:14;;;;;;;14.73;13.63;;;6.70;99.90;;;;;;5027094;28;20216;-74
2023/10/06 05:05:42;;;;;;;14.67;13.37;;;6.70;99.90;;;;;;5033920;28;20197;-74
2023/10/06 05:08:14;;;;;;;14.40;13.00;;;6.70;99.90;;;;;;5018144;28;20254;-74
2023/10/06 05:10:42;;;;;;;14.27;12.97;;;6.80;99.90;;;;;;5046922;28;20201;-75
2023/10/06 05:13:10;;;;;;;14.27;12.90;;;6.80;99.90;;;;;;5022389;28;20223;-74
2023/10/06 05:15:40;;;;;;;14.73;13.60;;;6.80;99.90;;;;;;5014847;28;20194;-74
2023/10/06 05:18:12;;;;;;;14.60;13.40;;;6.80;99.90;;;;;;5029241;28;20203;-74
2023/10/06 05:20:39;;;;;;;14.53;13.43;;;6.80;99.90;;;;;;5032929;28;20230;-74
2023/10/06 05:23:09;;;;;;;14.03;12.83;;;6.90;99.90;;;;;;5032523;28;20614;-75
2023/10/06 05:25:36;;;;;;;15.23;13.77;;;6.90;99.90;;;;;;5027388;28;20198;-78
2023/10/06 05:28:07;;;;;;;14.37;13.27;;;6.80;99.90;;;;;;5029407;28;20210;-77
2023/10/06 05:30:36;;;;;;;15.00;13.80;;;6.80;99.90;;;;;;5024749;28;20648;-78
2023/10/06 05:33:04;;;;;;;15.27;13.97;;;6.80;99.90;;;;;;5022256;28;20296;-77
2023/10/06 05:35:36;;;;;;;14.30;13.10;;;6.80;99.90;;;;;;5020008;28;20196;-75
2023/10/06 05:38:04;;;;;;;13.70;12.70;;;6.80;99.90;;;;;;5029537;28;20214;-75
2023/10/06 05:40:31;;;;;;;14.07;12.90;;;6.80;99.90;;;;;;5022139;28;20264;-78
2023/10/06 05:42:57;;;;;;;13.63;12.53;;;6.80;99.90;;;;;;5036027;28;20218;-75
2023/10/06 05:45:26;;;;;;;13.13;12.03;;;6.80;99.90;;;;;;5020801;28;20203;-78
2023/10/06 05:47:54;;;;;;;12.97;11.97;;;6.90;99.90;;;;;;5029824;28;20249;-77
2023/10/06 05:50:27;;;;;;;13.07;12.07;;;7.00;99.90;;;;;;5034729;28;20282;-77
2023/10/06 05:52:59;;;;;;;13.50;12.40;;;7.00;99.90;;;;;;5050300;28;20256;-77
2023/10/06 05:55:30;;;;;;;13.27;12.27;;;7.00;99.90;;;;;;5037484;28;20225;-78
2023/10/06 05:57:58;;;;;;;13.37;12.37;;;7.10;99.90;;;;;;5036765;28;20248;-78
2023/10/06 06:00:27;;;;;;;12.00;10.90;;;7.10;99.90;;;;;;5027310;28;20222;-77
2023/10/06 06:02:58;;;;;;;13.63;12.63;;;7.10;99.90;;;;;;5029769;28;20218;-74
2023/10/06 06:05:25;;;;;;;13.63;12.63;;;7.20;99.90;;;;;;5033136;28;20202;-74
2023/10/06 06:07:52;;;;;;;12.53;11.43;;;7.20;99.90;;;;;;5031116;28;20570;-75
2023/10/06 06:10:19;;;;;;;11.20;10.20;;;7.20;99.90;;;;;;5024324;28;20205;-77
2023/10/06 06:12:47;;;;;;;13.17;12.17;;;7.30;99.90;;;;;;5038431;28;20284;-77
2023/10/06 06:15:16;;;;;;;13.50;12.33;;;7.30;99.90;;;;;;5039722;28;20570;-76
2023/10/06 06:17:44;;;;;;;13.37;12.37;;;7.40;99.90;;;;;;5034020;28;20199;-78
2023/10/06 06:20:14;;;;;;;12.93;11.93;;;7.50;99.90;;;;;;5040912;28;20634;-77
2023/10/06 06:22:47;;;;;;;10.83;10.00;;;7.50;99.90;;;;;;5039118;28;20214;-78
2023/10/06 06:25:16;;;;;;;12.40;11.47;;;7.60;99.90;;;;;;5037514;28;20301;-78
2023/10/06 06:27:43;;;;;;;12.10;11.10;;;7.70;99.90;;;;;;5029925;28;20201;-81
2023/10/06 06:30:11;;;;;;;11.93;10.77;;;7.70;99.90;;;;;;5037302;28;20263;-78
2023/10/06 06:32:38;;;;;;;14.77;13.30;;;7.80;99.90;;;;;;5031129;28;20223;-78
2023/10/06 06:35:10;;;;;;;13.60;12.60;;;7.80;99.90;;;;;;5046761;28;20203;-78
2023/10/06 06:37:37;;;;;;;13.63;12.47;;;7.80;99.90;;;;;;5031324;28;20211;-77
2023/10/06 06:40:07;;;;;;;11.30;10.20;;;7.90;99.90;;;;;;5036313;28;20212;-78
2023/10/06 06:42:37;;;;;;;14.40;13.00;;;7.90;99.90;;;;;;5038038;28;20223;-78
2023/10/06 06:45:06;;;;;;;13.80;12.70;;;8.00;99.90;;;;;;5025675;28;20334;-78
2023/10/06 06:47:33;;;;;;;13.20;12.27;;;8.20;99.90;;;;;;5025211;28;20199;-75
2023/10/06 06:50:00;;;;;;;11.13;10.23;;;8.30;99.90;;;;;;5032515;28;20192;-75
2023/10/06 06:52:28;;;;;;;13.17;12.17;;;8.40;99.90;;;;;;5026759;28;20599;-75
2023/10/06 06:54:55;;;;;;;13.67;12.40;;;8.50;99.90;;;;;;5033163;28;20263;-75
2023/10/06 06:57:22;;;;;;;8.03;5.97;;;8.70;99.90;;;;;;5023685;28;20651;-75
2023/10/06 06:59:49;;;;;;;9.23;6.50;;;9.00;99.90;;;;;;5033799;28;20212;-75
2023/10/06 07:02:16;;;;;;;7.80;5.60;;;9.40;99.90;;;;;;5031440;28;20302;-75
2023/10/06 07:04:43;;;;;;;11.00;9.87;;;9.60;99.90;;;;;;5024554;28;20584;-75
2023/10/06 07:07:09;;;;;;;7.83;6.10;;;9.90;99.90;;;;;;5029764;28;20681;-75
2023/10/06 07:09:38;;;;;;;6.17;5.17;;;10.10;99.90;;;;;;5030644;28;20204;-77
2023/10/06 07:12:05;;;;;;;9.30;7.87;;;10.40;99.90;;;;;;5034518;28;20202;-78
2023/10/06 07:14:32;;;;;;;8.97;4.90;;;10.60;99.90;;;;;;5034662;28;20188;-76
2023/10/06 07:17:00;;;;;;;8.03;7.33;;;10.80;99.90;;;;;;5033717;28;20203;-75
2023/10/06 07:19:27;;;;;;;8.10;7.30;;;10.90;99.90;;;;;;5033935;28;20243;-76
2023/10/06 07:21:54;;;;;;;6.80;5.77;;;11.10;99.90;;;;;;5032313;28;20328;-75
2023/10/06 07:24:20;;;;;;;10.47;6.27;;;11.20;99.90;;;;;;5034473;28;20220;-76
2023/10/06 07:26:50;;;;;;;8.10;7.30;;;11.40;99.90;;;;;;5028489;28;20210;-76
2023/10/06 07:29:16;;;;;;;8.90;6.80;;;11.80;99.90;;;;;;5025660;28;20653;-76
2023/10/06 07:31:43;;;;;;;9.13;6.97;;;12.10;99.90;;;;;;5034935;28;20195;-76
2023/10/06 07:34:11;;;;;;;9.53;6.30;;;12.60;99.90;;;;;;5050680;22;20582;-78
2023/10/06 07:36:38;;;;;;;9.13;7.17;;;12.90;99.90;;;;;;5034123;28;20282;-79
2023/10/06 07:39:08;;;;;;;9.20;6.13;;;13.30;99.90;;;;;;5031866;28;20266;-84
2023/10/06 07:41:36;;;;;;;10.20;8.23;;;13.50;99.90;;;;;;5034770;28;20222;-80
2023/10/06 07:44:06;;;;;;;9.30;8.20;;;13.80;99.90;;;;;;5029115;28;20219;-80
2023/10/06 07:46:33;;;;;;;9.77;8.03;;;14.00;99.90;;;;;;5035466;28;20236;-78
2023/10/06 07:49:01;;;;;;;10.83;7.53;;;14.30;99.90;;;;;;5025095;28;20592;-78
2023/10/06 07:51:28;;;;;;;10.27;9.13;;;14.70;99.90;;;;;;5018761;28;20217;-79
2023/10/06 07:53:55;;;;;;;8.23;6.57;;;15.20;99.90;;;;;;5024456;28;20771;-79
2023/10/06 07:56:22;;;;;;;9.73;6.93;;;15.40;99.90;;;;;;5030880;28;20195;-78
2023/10/06 07:58:50;;;;;;;12.30;9.13;;;15.60;99.90;;;;;;5023644;28;20211;-78
2023/10/06 08:01:20;;;;;;;9.87;7.80;;;15.80;99.90;;;;;;5031023;28;20222;-78
2023/10/06 08:03:48;;;;;;;11.67;7.10;;;16.10;99.90;;;;;;5042031;28;20218;-78
2023/10/06 08:06:15;;;;;;;11.07;6.40;;;16.30;99.90;;;;;;5030635;28;20235;-79
2023/10/06 08:08:42;;;;;;;11.33;8.30;;;16.40;99.90;;;;;;5019489;28;20254;-78
2023/10/06 08:11:09;;;;;;;11.70;10.53;;;16.60;99.90;;;;;;5032210;28;20783;-78
2023/10/06 08:13:38;;;;;;;8.57;6.20;;;16.70;99.90;;;;;;5032887;28;20215;-79
2023/10/06 08:16:06;;;;;;;11.43;7.40;;;16.70;99.90;;;;;;5032264;28;20200;-78
2023/10/06 08:18:34;;;;;;;9.37;6.03;;;16.90;99.90;;;;;;5039351;28;20202;-79
2023/10/06 08:21:01;;;;;;;9.03;6.73;;;17.00;99.90;;;;;;5030450;28;20219;-78
2023/10/06 08:23:29;;;;;;;10.70;8.80;;;16.90;99.90;;;;;;5034774;28;20310;-79
2023/10/06 08:25:57;;;;;;;11.07;7.13;;;16.90;99.90;;;;;;5036481;28;20686;-81
2023/10/06 08:28:24;;;;;;;8.33;5.60;;;17.10;99.90;;;;;;5034233;28;20200;-79
2023/10/06 08:30:51;;;;;;;8.17;5.93;;;17.30;99.90;;;;;;5037877;28;20226;-79
2023/10/06 08:33:18;;;;;;;11.13;9.93;;;17.50;99.90;;;;;;5034439;28;20227;-79
2023/10/06 08:35:46;;;;;;;10.03;7.03;;;17.70;99.90;;;;;;5027688;28;20204;-79
2023/10/06 08:38:14;;;;;;;10.43;6.10;;;17.60;99.90;;;;;;5039231;28;20662;-78
2023/10/06 08:40:43;;;;;;;9.43;8.40;;;17.70;99.90;;;;;;5040457;28;20258;-79
2023/10/06 08:43:10;;;;;;;11.93;10.37;;;17.90;99.90;;;;;;5037939;28;20283;-79
2023/10/06 08:45:41;;;;;;;10.13;6.73;;;18.10;99.90;;;;;;5037668;28;20206;-79
2023/10/06 08:48:10;;;;;;;12.23;6.83;;;18.00;99.90;;;;;;5031632;28;20217;-79
2023/10/06 08:50:38;;;;;;;8.50;5.37;;;18.00;99.90;;;;;;5033569;28;20653;-79
2023/10/06 08:53:09;;;;;;;12.07;6.10;;;18.30;99.90;;;;;;5035611;28;20303;-78
2023/10/06 08:55:38;;;;;;;11.03;8.67;;;18.30;99.90;;;;;;5027494;28;20290;-79
2023/10/06 08:58:07;;;;;;;12.53;8.07;;;18.50;99.90;;;;;;5030121;28;20270;-79
2023/10/06 09:00:36;;;;;;;9.90;6.40;;;18.60;99.90;;;;;;5024522;28;20249;-79
2023/10/06 09:03:08;;;;;;;10.63;7.57;;;18.60;99.90;;;;;;5033787;28;20230;-79
2023/10/06 09:05:39;;;;;;;9.43;6.90;;;18.70;99.90;;;;;;5029205;28;20227;-79
2023/10/06 09:08:09;;;;;;;9.43;7.50;;;18.70;99.90;;;;;;5035224;28;20229;-79
2023/10/06 09:10:38;;;;;;;11.87;10.67;;;18.70;99.90;;;;;;5031122;28;20230;-79
2023/10/06 09:13:07;;;;;;;10.37;6.97;;;18.50;99.90;;;;;;5026705;28;20269;-78
2023/10/06 09:15:35;;;;;;;11.23;7.60;;;18.60;99.90;;;;;;5037155;28;20257;-79
2023/10/06 09:18:19;;;;;;;11.73;10.53;;;18.80;99.90;;;;;;5038288;28;20205;-80
2023/10/06 09:20:47;;;;;;;10.90;9.80;;;18.90;99.90;;;;;;5030454;28;20301;-79
2023/10/06 09:23:30;;;;;;;11.43;10.10;;;19.10;99.90;;;;;;5032867;28;20632;-80
2023/10/06 09:25:57;;;;;;;12.70;10.23;;;19.00;99.90;;;;;;5025384;28;20284;-79
2023/10/06 09:28:24;;;;;;;9.40;7.50;;;19.20;99.90;;;;;;5033587;28;20235;-79
2023/10/06 09:30:56;;;;;;;11.33;5.90;;;19.20;99.90;;;;;;5029661;28;20200;-79
2023/10/06 09:33:26;;;;;;;9.37;6.77;;;19.20;99.90;;;;;;5028078;28;20258;-79
2023/10/06 09:36:07;;;;;;;7.97;6.53;;;19.20;99.90;;;;;;5033986;28;20191;-79
2023/10/06 09:38:36;;;;;;;12.30;7.20;;;19.30;99.90;;;;;;5032612;28;20639;-79
2023/10/06 09:41:05;;;;;;;12.17;7.90;;;19.30;99.90;;;;;;5030406;28;20718;-79
2023/10/06 09:43:35;;;;;;;10.20;8.60;;;19.40;99.90;;;;;;5020932;28;20221;-79
2023/10/06 09:46:07;;;;;;;10.77;9.03;;;19.40;99.90;;;;;;5030098;28;20196;-80
2023/10/06 09:48:37;;;;;;;11.47;10.37;;;19.40;99.90;;;;;;5037001;28;20677;-80
2023/10/06 09:51:09;;;;;;;7.03;4.87;;;19.40;99.90;;;;;;5041243;28;20204;-78
2023/10/06 09:53:39;;;;;;;9.47;6.10;;;19.40;99.90;;;;;;5026901;28;20222;-78
2023/10/06 09:56:09;;;;;;;10.77;9.33;;;19.30;99.90;;;;;;5034998;28;20278;-78
2023/10/06 09:58:36;;;;;;;11.67;9.77;;;19.30;99.90;;;;;;5023212;28;20662;-79
2023/10/06 10:01:04;;;;;;;9.70;8.70;;;19.20;99.90;;;;;;5025377;28;20267;-79
2023/10/06 10:03:33;;;;;;;11.13;8.93;;;19.20;99.90;;;;;;5045633;28;20222;-79
2023/10/06 10:06:04;;;;;;;7.67;5.80;;;19.10;99.90;;;;;;5035139;28;20214;-78
2023/10/06 10:08:32;;;;;;;7.80;6.00;;;19.10;99.90;;;;;;5026427;28;20203;-79
2023/10/06 10:11:04;;;;;;;10.03;6.40;;;18.90;99.90;;;;;;5031076;28;20265;-79
2023/10/06 10:14:00;;;;;;;9.13;6.50;;;18.90;99.90;;;;;;5029288;28;20219;-81
2023/10/06 10:16:47;;;;;;;10.40;9.40;;;19.00;99.90;;;;;;5027682;28;20210;-79
2023/10/06 10:19:19;;;;;;;12.50;9.70;;;19.10;99.90;;;;;;5026897;28;20216;-78
2023/10/06 10:21:46;;;;;;;11.03;10.00;;;19.10;99.90;;;;;;5034824;28;20254;-79
2023/10/06 10:24:18;;;;;;;10.40;8.77;;;19.10;99.90;;;;;;5034436;28;20219;-78
2023/10/06 10:26:50;;;;;;;8.60;6.97;;;19.10;99.90;;;;;;5021550;28;20202;-79
2023/10/06 10:29:30;;;;;;;7.17;6.10;;;19.00;99.90;;;;;;5032038;28;20207;-79
2023/10/06 10:32:06;;;;;;;9.50;8.70;;;19.00;99.90;;;;;;5023515;28;20199;-80
2023/10/06 10:34:34;;;;;;;10.27;9.27;;;19.00;99.90;;;;;;5033725;28;20237;-80
2023/10/06 10:37:17;;;;;;;9.63;8.73;;;19.00;99.90;;;;;;5025541;28;20262;-80
2023/10/06 10:39:49;;;;;;;9.40;8.60;;;19.00;99.90;;;;;;5022052;28;20216;-80
2023/10/06 10:42:18;;;;;;;9.60;8.70;;;19.20;99.90;;;;;;5045510;28;20213;-80
2023/10/06 10:44:48;;;;;;;10.47;9.40;;;19.10;99.90;;;;;;5032114;28;20202;-79
2023/10/06 10:47:15;;;;;;;10.00;9.10;;;19.10;99.90;;;;;;5032162;28;20294;-79
2023/10/06 10:49:44;;;;;;;10.13;8.90;;;19.20;99.90;;;;;;5029558;28;20674;-79
2023/10/06 10:52:12;;;;;;;9.73;8.37;;;19.10;99.90;;;;;;5031145;28;20198;-79
2023/10/06 10:54:40;;;;;;;9.20;8.30;;;19.10;99.90;;;;;;5025162;28;20631;-78
2023/10/06 10:57:09;;;;;;;8.87;8.07;;;19.10;99.90;;;;;;5033811;28;20198;-79
2023/10/06 11:00:20;;;;;;;8.70;7.83;;;19.10;99.90;;;;;;5031953;28;20202;-79
2023/10/06 11:03:02;;;;;;;9.13;8.23;;;19.20;99.90;;;;;;5025287;28;20767;-79
2023/10/06 11:05:29;;;;;;;9.17;8.10;;;19.30;99.90;;;;;;5033192;28;20206;-79
2023/10/06 11:07:57;;;;;;;9.00;8.20;;;19.30;99.90;;;;;;5026003;28;20234;-79
2023/10/06 11:10:24;;;;;;;9.07;8.37;;;19.40;99.90;;;;;;5031436;28;20209;-79
2023/10/06 11:12:51;;;;;;;8.83;8.10;;;19.40;99.90;;;;;;5031991;28;20636;-79
2023/10/06 11:15:28;;;;;;;9.00;8.20;;;19.50;99.90;;;;;;5031648;28;20274;-79
2023/10/06 11:17:58;;;;;;;9.00;8.30;;;19.50;99.90;;;;;;5033172;28;20317;-79
2023/10/06 11:20:33;;;;;;;9.70;8.70;;;19.50;99.90;;;;;;5033766;28;20230;-79
2023/10/06 11:23:01;;;;;;;6.10;5.50;;;19.50;99.90;;;;;;5033014;28;20226;-79
2023/10/06 11:25:29;;;;;;;7.90;5.40;;;19.50;99.90;;;;;;5030856;28;20249;-79
2023/10/06 11:28:02;;;;;;;6.07;4.90;;;19.40;99.90;;;;;;5027196;28;20199;-79
2023/10/06 11:30:32;;;;;;;7.30;5.50;;;19.50;99.90;;;;;;5035419;28;20271;-79
2023/10/06 11:33:02;;;;;;;6.30;4.97;;;19.50;99.90;;;;;;5027320;28;20226;-79
2023/10/06 11:35:29;;;;;;;5.33;4.83;;;19.50;99.90;;;;;;5030643;28;20811;-79
2023/10/06 11:37:56;;;;;;;6.03;4.57;;;19.50;99.90;;;;;;5031339;28;20204;-79
2023/10/06 11:40:24;;;;;;;9.33;8.53;;;19.50;99.90;;;;;;5030547;28;20205;-79
2023/10/06 11:42:51;;;;;;;9.37;8.57;;;19.50;99.90;;;;;;5029018;28;20231;-79
2023/10/06 11:45:27;;;;;;;9.27;8.47;;;19.50;99.90;;;;;;5030815;28;20264;-78
2023/10/06 11:47:55;;;;;;;9.87;8.87;;;19.50;99.90;;;;;;5027700;28;20622;-81
2023/10/06 11:50:24;;;;;;;9.97;9.07;;;19.40;99.90;;;;;;5015595;28;20227;-78
2023/10/06 11:52:51;;;;;;;8.33;7.57;;;19.40;99.90;;;;;;5016676;28;20239;-79
2023/10/06 11:55:26;;;;;;;9.30;8.43;;;19.30;99.90;;;;;;5019577;28;20665;-79
2023/10/06 11:57:54;;;;;;;8.67;7.63;;;19.30;99.90;;;;;;5023930;28;20676;-79
2023/10/06 12:00:35;;;;;;;8.63;5.27;;;19.20;99.90;;;;;;5023986;28;20281;-79
2023/10/06 12:03:04;;;;;;;7.57;5.40;;;19.20;99.90;;;;;;5017389;28;20717;-78
2023/10/06 12:05:32;;;;;;;9.87;8.87;;;19.20;99.90;;;;;;5015633;28;20195;-79
2023/10/06 12:08:04;;;;;;;9.30;8.50;;;19.20;99.90;;;;;;5014325;28;20675;-79
2023/10/06 12:10:32;;;;;;;9.03;8.13;;;19.20;99.90;;;;;;5014968;28;20207;-79
2023/10/06 12:13:00;;;;;;;10.23;9.07;;;19.20;99.90;;;;;;5017386;28;20307;-80
2023/10/06 12:15:29;;;;;;;10.87;9.20;;;19.20;99.90;;;;;;5018449;28;20207;-79
2023/10/06 12:17:57;;;;;;;10.27;9.20;;;19.20;99.90;;;;;;5018907;28;20294;-79
2023/10/06 12:20:25;;;;;;;7.83;5.67;;;19.20;99.90;;;;;;5021595;28;20194;-79
2023/10/06 12:22:53;;;;;;;9.50;6.53;;;19.20;99.90;;;;;;5022366;28;20246;-79
2023/10/06 12:25:23;;;;;;;8.83;5.50;;;19.20;99.90;;;;;;5018723;28;20260;-80
2023/10/06 12:27:51;;;;;;;12.87;6.43;;;19.20;99.90;;;;;;5024511;28;20216;-79
2023/10/06 12:30:19;;;;;;;10.37;9.37;;;19.20;99.90;;;;;;5024454;28;20306;-79
2023/10/06 12:32:47;;;;;;;7.47;5.97;;;19.20;99.90;;;;;;5025774;28;20316;-78
2023/10/06 12:35:18;;;;;;;8.63;5.00;;;19.20;99.90;;;;;;5018701;28;20681;-79
2023/10/06 12:37:46;;;;;;;8.20;5.87;;;19.30;99.90;;;;;;5021127;28;20207;-79
2023/10/06 12:40:14;;;;;;;8.00;5.30;;;19.30;99.90;;;;;;5019344;28;20204;-79
2023/10/06 12:42:43;;;;;;;7.87;5.30;;;19.30;99.90;;;;;;5020117;28;20249;-79
2023/10/06 12:45:12;;;;;;;7.23;4.90;;;19.30;99.90;;;;;;5027484;28;20203;-79
2023/10/06 12:47:39;;;;;;;9.03;5.53;;;19.30;99.90;;;;;;5016089;28;20473;-78
2023/10/06 12:50:08;;;;;;;9.33;8.37;;;19.20;99.90;;;;;;5018568;28;20663;-79
2023/10/06 12:52:36;;;;;;;9.43;8.43;;;19.20;99.90;;;;;;5027429;28;20211;-79